Quartzsite, Arizona
Current Conditions -  °F | °C
As of 7:52 AM on Tuesday 21 Oct 2014 (Local Time) from KBLH Reporting Station
Clear Clear  
Wind Chill: 72°   Ceiling: Unl
Heat Index: 72°   Visibility: 10mi
Dew Point: 46°   Wind: 5mph
Humidity: 40%   Direction: 330°NNW
Pressure: 29.84"   Gusts: NA
Location:  33.67°N, 114.22°W
Report Text: KBLH 211452Z AUTO 33004KT 10SM CLR 22/08 A2984 RMK AO2 SLP100 T02220078 53015
Loading
Personal Weather Stations






























Interactive Weather Map New forecast layout! Learn more

10-Day Weather Forecast

Advertisements
Track Severe Weather on mobile